Terminal Aerodrome Forecast
Issued by NWS

Home | Current Version | Previous Version | Graphics & Text | Print | Product List | Glossary On
Versions: 1 2 3 4 5 6 7 8 9 10 11 12 13 14 15
349
FTUS43 KABR 021734
TAFATY
TAF
KATY 021734Z 0218/0318 23005KT P6SM BKN200
     FM031400 27008KT P6SM SCT250
     FM031600 29015G20KT P6SM SCT250=

USA.gov is the U.S. government's official web portal to all federal, state and local government web resources and services.